sensor_id;sensor_type;location;lat;lon;timestamp;P1;durP1;ratioP1;P2;durP2;ratioP2
38455;SDS011;24237;50.106;20.014;2022-11-20T00:01:22;121.95;;;44.95;;
38455;SDS011;24237;50.106;20.014;2022-11-20T00:03:56;122.13;;;47.10;;
38455;SDS011;24237;50.106;20.014;2022-11-20T00:06:23;114.07;;;44.90;;
38455;SDS011;24237;50.106;20.014;2022-11-20T00:08:49;114.63;;;43.75;;
38455;SDS011;24237;50.106;20.014;2022-11-20T00:11:19;104.95;;;44.22;;
38455;SDS011;24237;50.106;20.014;2022-11-20T00:13:48;105.18;;;42.35;;
38455;SDS011;24237;50.106;20.014;2022-11-20T00:16:16;111.25;;;43.63;;
38455;SDS011;24237;50.106;20.014;2022-11-20T00:18:44;109.85;;;43.25;;
38455;SDS011;24237;50.106;20.014;2022-11-20T00:21:14;109.70;;;43.65;;
38455;SDS011;24237;50.106;20.014;2022-11-20T00:23:44;114.65;;;45.42;;
38455;SDS011;24237;50.106;20.014;2022-11-20T00:26:11;115.93;;;46.15;;
38455;SDS011;24237;50.106;20.014;2022-11-20T00:28:38;115.65;;;44.25;;
38455;SDS011;24237;50.106;20.014;2022-11-20T00:31:09;106.82;;;42.33;;
38455;SDS011;24237;50.106;20.014;2022-11-20T00:33:37;110.35;;;44.15;;
38455;SDS011;24237;50.106;20.014;2022-11-20T00:36:07;108.03;;;44.45;;
38455;SDS011;24237;50.106;20.014;2022-11-20T00:38:44;103.85;;;43.08;;
38455;SDS011;24237;50.106;20.014;2022-11-20T00:41:10;109.20;;;41.92;;
38455;SDS011;24237;50.106;20.014;2022-11-20T00:43:40;103.60;;;43.53;;
38455;SDS011;24237;50.106;20.014;2022-11-20T00:46:14;105.60;;;44.17;;
38455;SDS011;24237;50.106;20.014;2022-11-20T00:48:43;109.80;;;43.05;;
38455;SDS011;24237;50.106;20.014;2022-11-20T00:51:13;115.57;;;44.80;;
38455;SDS011;24237;50.106;20.014;2022-11-20T00:53:40;112.53;;;45.75;;
38455;SDS011;24237;50.106;20.014;2022-11-20T00:56:13;114.53;;;44.47;;
38455;SDS011;24237;50.106;20.014;2022-11-20T00:58:41;101.78;;;42.55;;
38455;SDS011;24237;50.106;20.014;2022-11-20T01:01:18;112.47;;;42.65;;
38455;SDS011;24237;50.106;20.014;2022-11-20T01:03:47;110.13;;;42.00;;
38455;SDS011;24237;50.106;20.014;2022-11-20T01:06:15;107.97;;;42.22;;
38455;SDS011;24237;50.106;20.014;2022-11-20T01:08:42;104.38;;;42.45;;
38455;SDS011;24237;50.106;20.014;2022-11-20T01:11:10;104.37;;;42.73;;
38455;SDS011;24237;50.106;20.014;2022-11-20T01:13:37;104.43;;;43.13;;
38455;SDS011;24237;50.106;20.014;2022-11-20T01:16:19;112.63;;;43.65;;
38455;SDS011;24237;50.106;20.014;2022-11-20T01:19:05;99.55;;;42.65;;
38455;SDS011;24237;50.106;20.014;2022-11-20T01:21:35;109.30;;;43.70;;
38455;SDS011;24237;50.106;20.014;2022-11-20T01:24:03;109.68;;;44.75;;
38455;SDS011;24237;50.106;20.014;2022-11-20T01:26:33;118.88;;;46.15;;
38455;SDS011;24237;50.106;20.014;2022-11-20T01:28:59;121.22;;;45.33;;
38455;SDS011;24237;50.106;20.014;2022-11-20T01:31:27;110.03;;;44.40;;
38455;SDS011;24237;50.106;20.014;2022-11-20T01:33:55;117.20;;;43.60;;
38455;SDS011;24237;50.106;20.014;2022-11-20T01:36:23;117.45;;;46.13;;
38455;SDS011;24237;50.106;20.014;2022-11-20T01:38:53;113.78;;;46.80;;
38455;SDS011;24237;50.106;20.014;2022-11-20T01:41:20;121.00;;;47.17;;
38455;SDS011;24237;50.106;20.014;2022-11-20T01:44:06;116.68;;;46.97;;
38455;SDS011;24237;50.106;20.014;2022-11-20T01:46:35;111.68;;;47.30;;
38455;SDS011;24237;50.106;20.014;2022-11-20T01:49:17;114.85;;;46.85;;
38455;SDS011;24237;50.106;20.014;2022-11-20T01:51:58;105.28;;;44.75;;
38455;SDS011;24237;50.106;20.014;2022-11-20T01:54:36;114.20;;;47.15;;
38455;SDS011;24237;50.106;20.014;2022-11-20T01:57:07;109.05;;;47.08;;
38455;SDS011;24237;50.106;20.014;2022-11-20T01:59:37;115.00;;;45.20;;
38455;SDS011;24237;50.106;20.014;2022-11-20T02:02:09;113.82;;;46.42;;
38455;SDS011;24237;50.106;20.014;2022-11-20T02:04:34;117.38;;;46.40;;
38455;SDS011;24237;50.106;20.014;2022-11-20T02:07:01;115.70;;;46.10;;
38455;SDS011;24237;50.106;20.014;2022-11-20T02:09:28;110.97;;;45.97;;
38455;SDS011;24237;50.106;20.014;2022-11-20T02:11:54;127.30;;;48.03;;
38455;SDS011;24237;50.106;20.014;2022-11-20T02:14:23;131.67;;;49.00;;
38455;SDS011;24237;50.106;20.014;2022-11-20T02:16:50;121.53;;;47.30;;
38455;SDS011;24237;50.106;20.014;2022-11-20T02:19:19;117.95;;;48.72;;
38455;SDS011;24237;50.106;20.014;2022-11-20T02:24:41;132.00;;;51.05;;
38455;SDS011;24237;50.106;20.014;2022-11-20T02:27:09;129.52;;;50.40;;
38455;SDS011;24237;50.106;20.014;2022-11-20T02:29:53;135.77;;;51.22;;
38455;SDS011;24237;50.106;20.014;2022-11-20T02:32:25;137.30;;;51.90;;
38455;SDS011;24237;50.106;20.014;2022-11-20T02:34:54;136.43;;;50.85;;
38455;SDS011;24237;50.106;20.014;2022-11-20T02:39:47;123.28;;;47.60;;
38455;SDS011;24237;50.106;20.014;2022-11-20T02:42:14;130.20;;;49.20;;
38455;SDS011;24237;50.106;20.014;2022-11-20T02:44:40;123.57;;;47.45;;
38455;SDS011;24237;50.106;20.014;2022-11-20T02:47:06;138.90;;;51.78;;
38455;SDS011;24237;50.106;20.014;2022-11-20T02:49:32;139.40;;;50.88;;
38455;SDS011;24237;50.106;20.014;2022-11-20T02:51:58;134.38;;;52.03;;
38455;SDS011;24237;50.106;20.014;2022-11-20T02:54:23;137.38;;;51.92;;
38455;SDS011;24237;50.106;20.014;2022-11-20T02:56:49;132.15;;;50.95;;
38455;SDS011;24237;50.106;20.014;2022-11-20T02:59:15;140.52;;;52.70;;
38455;SDS011;24237;50.106;20.014;2022-11-20T03:01:41;140.35;;;52.05;;
38455;SDS011;24237;50.106;20.014;2022-11-20T03:04:06;133.38;;;51.72;;
38455;SDS011;24237;50.106;20.014;2022-11-20T03:06:32;133.57;;;51.85;;
38455;SDS011;24237;50.106;20.014;2022-11-20T03:09:00;131.32;;;50.35;;
38455;SDS011;24237;50.106;20.014;2022-11-20T03:11:26;127.55;;;48.90;;
38455;SDS011;24237;50.106;20.014;2022-11-20T03:13:53;127.78;;;49.30;;
38455;SDS011;24237;50.106;20.014;2022-11-20T03:16:20;133.23;;;51.28;;
38455;SDS011;24237;50.106;20.014;2022-11-20T03:18:46;138.52;;;51.10;;
38455;SDS011;24237;50.106;20.014;2022-11-20T03:21:13;126.10;;;50.67;;
38455;SDS011;24237;50.106;20.014;2022-11-20T03:23:40;137.73;;;53.08;;
38455;SDS011;24237;50.106;20.014;2022-11-20T03:28:36;130.48;;;49.72;;
38455;SDS011;24237;50.106;20.014;2022-11-20T03:31:09;123.72;;;49.45;;
38455;SDS011;24237;50.106;20.014;2022-11-20T03:33:39;129.98;;;48.70;;
38455;SDS011;24237;50.106;20.014;2022-11-20T03:36:12;135.52;;;50.55;;
38455;SDS011;24237;50.106;20.014;2022-11-20T03:38:40;132.98;;;51.58;;
38455;SDS011;24237;50.106;20.014;2022-11-20T03:41:11;137.38;;;49.67;;
38455;SDS011;24237;50.106;20.014;2022-11-20T03:43:41;126.03;;;50.38;;
38455;SDS011;24237;50.106;20.014;2022-11-20T03:46:07;125.70;;;48.75;;
38455;SDS011;24237;50.106;20.014;2022-11-20T03:48:32;127.75;;;51.33;;
38455;SDS011;24237;50.106;20.014;2022-11-20T03:51:08;124.38;;;48.30;;
38455;SDS011;24237;50.106;20.014;2022-11-20T03:53:45;134.13;;;48.28;;
38455;SDS011;24237;50.106;20.014;2022-11-20T03:56:12;120.63;;;48.33;;
38455;SDS011;24237;50.106;20.014;2022-11-20T03:58:39;114.35;;;47.45;;
38455;SDS011;24237;50.106;20.014;2022-11-20T04:01:06;123.45;;;48.67;;
38455;SDS011;24237;50.106;20.014;2022-11-20T04:03:46;135.65;;;49.72;;
38455;SDS011;24237;50.106;20.014;2022-11-20T04:06:21;126.88;;;50.22;;
38455;SDS011;24237;50.106;20.014;2022-11-20T04:08:53;131.45;;;49.33;;
38455;SDS011;24237;50.106;20.014;2022-11-20T04:11:21;122.28;;;48.95;;
38455;SDS011;24237;50.106;20.014;2022-11-20T04:13:49;125.95;;;49.78;;
38455;SDS011;24237;50.106;20.014;2022-11-20T04:16:16;120.80;;;47.78;;
38455;SDS011;24237;50.106;20.014;2022-11-20T04:18:45;125.80;;;47.65;;
38455;SDS011;24237;50.106;20.014;2022-11-20T04:21:23;126.30;;;48.90;;
38455;SDS011;24237;50.106;20.014;2022-11-20T04:23:50;117.57;;;47.85;;
38455;SDS011;24237;50.106;20.014;2022-11-20T04:26:17;125.28;;;49.47;;
38455;SDS011;24237;50.106;20.014;2022-11-20T04:28:43;126.53;;;47.90;;
38455;SDS011;24237;50.106;20.014;2022-11-20T04:31:13;118.45;;;49.42;;
38455;SDS011;24237;50.106;20.014;2022-11-20T04:33:40;131.98;;;50.05;;
38455;SDS011;24237;50.106;20.014;2022-11-20T04:36:07;126.88;;;49.53;;
38455;SDS011;24237;50.106;20.014;2022-11-20T04:38:36;122.25;;;47.92;;
38455;SDS011;24237;50.106;20.014;2022-11-20T04:41:03;121.53;;;49.30;;
38455;SDS011;24237;50.106;20.014;2022-11-20T04:43:36;134.27;;;48.22;;
38455;SDS011;24237;50.106;20.014;2022-11-20T04:46:11;114.63;;;46.30;;
38455;SDS011;24237;50.106;20.014;2022-11-20T04:48:40;118.18;;;46.47;;
38455;SDS011;24237;50.106;20.014;2022-11-20T04:51:05;114.22;;;46.58;;
38455;SDS011;24237;50.106;20.014;2022-11-20T04:53:31;120.85;;;48.08;;
38455;SDS011;24237;50.106;20.014;2022-11-20T04:56:00;112.50;;;45.10;;
38455;SDS011;24237;50.106;20.014;2022-11-20T04:58:27;122.80;;;47.70;;
38455;SDS011;24237;50.106;20.014;2022-11-20T05:03:38;118.35;;;46.35;;
38455;SDS011;24237;50.106;20.014;2022-11-20T05:06:04;109.97;;;44.60;;
38455;SDS011;24237;50.106;20.014;2022-11-20T05:08:31;116.45;;;45.42;;
38455;SDS011;24237;50.106;20.014;2022-11-20T05:11:05;125.35;;;48.53;;
38455;SDS011;24237;50.106;20.014;2022-11-20T05:13:32;115.50;;;46.78;;
38455;SDS011;24237;50.106;20.014;2022-11-20T05:16:02;122.47;;;47.83;;
38455;SDS011;24237;50.106;20.014;2022-11-20T05:18:32;129.43;;;46.22;;
38455;SDS011;24237;50.106;20.014;2022-11-20T05:20:59;124.68;;;49.38;;
38455;SDS011;24237;50.106;20.014;2022-11-20T05:23:28;118.35;;;47.72;;
38455;SDS011;24237;50.106;20.014;2022-11-20T05:25:55;118.35;;;48.40;;
38455;SDS011;24237;50.106;20.014;2022-11-20T05:28:22;126.38;;;47.53;;
38455;SDS011;24237;50.106;20.014;2022-11-20T05:30:48;120.45;;;47.60;;
38455;SDS011;24237;50.106;20.014;2022-11-20T05:33:14;111.57;;;46.72;;
38455;SDS011;24237;50.106;20.014;2022-11-20T05:35:46;130.23;;;47.00;;
38455;SDS011;24237;50.106;20.014;2022-11-20T05:38:13;127.10;;;48.88;;
38455;SDS011;24237;50.106;20.014;2022-11-20T05:40:42;128.27;;;48.30;;
38455;SDS011;24237;50.106;20.014;2022-11-20T05:43:11;121.10;;;47.10;;
38455;SDS011;24237;50.106;20.014;2022-11-20T05:45:36;123.55;;;49.25;;
38455;SDS011;24237;50.106;20.014;2022-11-20T05:48:02;122.47;;;47.35;;
38455;SDS011;24237;50.106;20.014;2022-11-20T05:50:28;121.53;;;48.42;;
38455;SDS011;24237;50.106;20.014;2022-11-20T05:52:53;115.97;;;44.78;;
38455;SDS011;24237;50.106;20.014;2022-11-20T05:55:19;117.05;;;46.90;;
38455;SDS011;24237;50.106;20.014;2022-11-20T05:57:44;134.80;;;48.90;;
38455;SDS011;24237;50.106;20.014;2022-11-20T06:00:10;118.60;;;46.28;;
38455;SDS011;24237;50.106;20.014;2022-11-20T06:02:36;123.45;;;47.88;;
38455;SDS011;24237;50.106;20.014;2022-11-20T06:05:16;124.38;;;49.33;;
38455;SDS011;24237;50.106;20.014;2022-11-20T06:07:41;129.68;;;49.58;;
38455;SDS011;24237;50.106;20.014;2022-11-20T06:10:07;136.85;;;50.13;;
38455;SDS011;24237;50.106;20.014;2022-11-20T06:12:33;126.30;;;48.00;;
38455;SDS011;24237;50.106;20.014;2022-11-20T06:14:59;125.95;;;46.95;;
38455;SDS011;24237;50.106;20.014;2022-11-20T06:17:25;130.65;;;48.40;;
38455;SDS011;24237;50.106;20.014;2022-11-20T06:19:50;119.28;;;47.22;;
38455;SDS011;24237;50.106;20.014;2022-11-20T06:22:16;131.82;;;50.22;;
38455;SDS011;24237;50.106;20.014;2022-11-20T06:24:42;124.03;;;49.47;;
38455;SDS011;24237;50.106;20.014;2022-11-20T06:27:07;126.07;;;49.15;;
38455;SDS011;24237;50.106;20.014;2022-11-20T06:29:33;122.53;;;47.70;;
38455;SDS011;24237;50.106;20.014;2022-11-20T06:31:59;124.90;;;48.42;;
38455;SDS011;24237;50.106;20.014;2022-11-20T06:34:25;121.25;;;47.35;;
38455;SDS011;24237;50.106;20.014;2022-11-20T06:36:51;122.45;;;46.85;;
38455;SDS011;24237;50.106;20.014;2022-11-20T06:39:17;115.75;;;47.00;;
38455;SDS011;24237;50.106;20.014;2022-11-20T06:41:42;116.97;;;47.38;;
38455;SDS011;24237;50.106;20.014;2022-11-20T06:44:08;112.90;;;47.10;;
38455;SDS011;24237;50.106;20.014;2022-11-20T06:46:33;122.35;;;46.67;;
38455;SDS011;24237;50.106;20.014;2022-11-20T06:48:59;118.43;;;46.55;;
38455;SDS011;24237;50.106;20.014;2022-11-20T06:51:34;124.60;;;49.35;;
38455;SDS011;24237;50.106;20.014;2022-11-20T06:53:59;120.75;;;47.25;;
38455;SDS011;24237;50.106;20.014;2022-11-20T06:56:26;119.45;;;46.33;;
38455;SDS011;24237;50.106;20.014;2022-11-20T06:58:52;120.30;;;45.95;;
38455;SDS011;24237;50.106;20.014;2022-11-20T07:01:17;123.20;;;46.13;;
38455;SDS011;24237;50.106;20.014;2022-11-20T07:03:43;121.15;;;46.90;;
38455;SDS011;24237;50.106;20.014;2022-11-20T07:06:09;131.00;;;51.70;;
38455;SDS011;24237;50.106;20.014;2022-11-20T07:08:35;125.85;;;50.30;;
38455;SDS011;24237;50.106;20.014;2022-11-20T07:11:02;124.25;;;48.65;;
38455;SDS011;24237;50.106;20.014;2022-11-20T07:13:29;124.30;;;49.40;;
38455;SDS011;24237;50.106;20.014;2022-11-20T07:16:02;141.95;;;52.78;;
38455;SDS011;24237;50.106;20.014;2022-11-20T07:18:30;123.75;;;53.75;;
38455;SDS011;24237;50.106;20.014;2022-11-20T07:20:56;135.32;;;56.42;;
38455;SDS011;24237;50.106;20.014;2022-11-20T07:23:24;131.82;;;53.50;;
38455;SDS011;24237;50.106;20.014;2022-11-20T07:25:50;130.65;;;51.20;;
38455;SDS011;24237;50.106;20.014;2022-11-20T07:28:15;121.72;;;48.97;;
38455;SDS011;24237;50.106;20.014;2022-11-20T07:30:48;128.93;;;50.80;;
38455;SDS011;24237;50.106;20.014;2022-11-20T07:33:15;135.90;;;51.17;;
38455;SDS011;24237;50.106;20.014;2022-11-20T07:39:01;119.25;;;49.80;;
38455;SDS011;24237;50.106;20.014;2022-11-20T07:41:27;119.03;;;47.03;;
38455;SDS011;24237;50.106;20.014;2022-11-20T07:43:53;141.57;;;51.90;;
38455;SDS011;24237;50.106;20.014;2022-11-20T07:46:19;139.65;;;50.75;;
38455;SDS011;24237;50.106;20.014;2022-11-20T07:48:45;138.55;;;52.60;;
38455;SDS011;24237;50.106;20.014;2022-11-20T07:51:10;149.82;;;52.58;;
38455;SDS011;24237;50.106;20.014;2022-11-20T07:53:36;133.95;;;52.50;;
38455;SDS011;24237;50.106;20.014;2022-11-20T07:56:02;152.43;;;55.95;;
38455;SDS011;24237;50.106;20.014;2022-11-20T07:58:31;152.18;;;55.97;;
38455;SDS011;24237;50.106;20.014;2022-11-20T08:01:03;156.52;;;55.38;;
38455;SDS011;24237;50.106;20.014;2022-11-20T08:03:32;150.90;;;57.88;;
38455;SDS011;24237;50.106;20.014;2022-11-20T08:05:58;155.25;;;57.50;;
38455;SDS011;24237;50.106;20.014;2022-11-20T08:08:27;160.60;;;58.35;;
38455;SDS011;24237;50.106;20.014;2022-11-20T08:10:53;128.40;;;53.10;;
38455;SDS011;24237;50.106;20.014;2022-11-20T08:13:41;153.75;;;57.75;;
38455;SDS011;24237;50.106;20.014;2022-11-20T08:16:25;187.10;;;58.80;;
38455;SDS011;24237;50.106;20.014;2022-11-20T08:18:50;196.98;;;57.05;;
38455;SDS011;24237;50.106;20.014;2022-11-20T08:21:16;206.27;;;57.45;;
38455;SDS011;24237;50.106;20.014;2022-11-20T08:23:41;157.73;;;56.35;;
38455;SDS011;24237;50.106;20.014;2022-11-20T08:26:07;173.68;;;56.97;;
38455;SDS011;24237;50.106;20.014;2022-11-20T08:28:32;204.18;;;57.55;;
38455;SDS011;24237;50.106;20.014;2022-11-20T08:30:59;256.17;;;59.42;;
38455;SDS011;24237;50.106;20.014;2022-11-20T08:33:25;212.18;;;58.17;;
38455;SDS011;24237;50.106;20.014;2022-11-20T08:35:51;261.17;;;58.13;;
38455;SDS011;24237;50.106;20.014;2022-11-20T08:38:16;178.85;;;59.13;;
38455;SDS011;24237;50.106;20.014;2022-11-20T08:40:42;164.55;;;54.88;;
38455;SDS011;24237;50.106;20.014;2022-11-20T08:43:28;181.15;;;63.72;;
38455;SDS011;24237;50.106;20.014;2022-11-20T08:45:55;223.82;;;62.28;;
38455;SDS011;24237;50.106;20.014;2022-11-20T08:48:21;216.63;;;61.78;;
38455;SDS011;24237;50.106;20.014;2022-11-20T08:50:47;196.25;;;62.70;;
38455;SDS011;24237;50.106;20.014;2022-11-20T08:53:13;274.55;;;63.15;;
38455;SDS011;24237;50.106;20.014;2022-11-20T08:55:38;180.85;;;61.10;;
38455;SDS011;24237;50.106;20.014;2022-11-20T08:58:05;214.80;;;56.40;;
38455;SDS011;24237;50.106;20.014;2022-11-20T09:00:33;160.27;;;53.22;;
38455;SDS011;24237;50.106;20.014;2022-11-20T09:02:59;172.63;;;55.63;;
38455;SDS011;24237;50.106;20.014;2022-11-20T09:05:26;174.88;;;57.08;;
38455;SDS011;24237;50.106;20.014;2022-11-20T09:07:51;221.88;;;60.72;;
38455;SDS011;24237;50.106;20.014;2022-11-20T09:10:20;194.85;;;59.40;;
38455;SDS011;24237;50.106;20.014;2022-11-20T09:12:49;188.27;;;55.42;;
38455;SDS011;24237;50.106;20.014;2022-11-20T09:15:23;183.20;;;60.10;;
38455;SDS011;24237;50.106;20.014;2022-11-20T09:18:02;215.80;;;59.17;;
38455;SDS011;24237;50.106;20.014;2022-11-20T09:20:31;158.90;;;57.50;;
38455;SDS011;24237;50.106;20.014;2022-11-20T09:23:00;151.90;;;57.05;;
38455;SDS011;24237;50.106;20.014;2022-11-20T09:25:25;202.13;;;63.97;;
38455;SDS011;24237;50.106;20.014;2022-11-20T09:27:55;177.57;;;62.03;;
38455;SDS011;24237;50.106;20.014;2022-11-20T09:30:22;211.98;;;59.28;;
38455;SDS011;24237;50.106;20.014;2022-11-20T09:32:47;189.63;;;58.72;;
38455;SDS011;24237;50.106;20.014;2022-11-20T09:35:13;194.27;;;63.10;;
38455;SDS011;24237;50.106;20.014;2022-11-20T09:37:39;195.05;;;65.35;;
38455;SDS011;24237;50.106;20.014;2022-11-20T09:40:05;183.32;;;66.05;;
38455;SDS011;24237;50.106;20.014;2022-11-20T09:50:43;182.60;;;58.70;;
38455;SDS011;24237;50.106;20.014;2022-11-20T09:55:54;170.07;;;60.38;;
38455;SDS011;24237;50.106;20.014;2022-11-20T09:58:27;157.43;;;58.53;;
38455;SDS011;24237;50.106;20.014;2022-11-20T10:01:09;153.70;;;55.00;;
38455;SDS011;24237;50.106;20.014;2022-11-20T10:06:44;151.40;;;58.78;;
38455;SDS011;24237;50.106;20.014;2022-11-20T10:09:30;141.02;;;55.42;;
38455;SDS011;24237;50.106;20.014;2022-11-20T10:25:20;153.95;;;60.10;;
38455;SDS011;24237;50.106;20.014;2022-11-20T10:27:59;156.30;;;59.03;;
38455;SDS011;24237;50.106;20.014;2022-11-20T10:30:38;147.73;;;60.05;;
38455;SDS011;24237;50.106;20.014;2022-11-20T10:33:15;157.02;;;61.60;;
38455;SDS011;24237;50.106;20.014;2022-11-20T10:35:45;159.73;;;63.13;;
38455;SDS011;24237;50.106;20.014;2022-11-20T10:40:48;151.25;;;61.17;;
38455;SDS011;24237;50.106;20.014;2022-11-20T10:43:43;149.63;;;60.83;;
38455;SDS011;24237;50.106;20.014;2022-11-20T10:46:18;158.90;;;62.30;;
38455;SDS011;24237;50.106;20.014;2022-11-20T10:48:47;155.30;;;58.15;;
38455;SDS011;24237;50.106;20.014;2022-11-20T10:54:12;140.60;;;56.50;;
38455;SDS011;24237;50.106;20.014;2022-11-20T10:56:46;146.40;;;58.03;;
38455;SDS011;24237;50.106;20.014;2022-11-20T11:02:21;136.85;;;56.13;;
38455;SDS011;24237;50.106;20.014;2022-11-20T11:04:54;142.80;;;56.42;;
38455;SDS011;24237;50.106;20.014;2022-11-20T11:07:27;129.70;;;55.13;;
38455;SDS011;24237;50.106;20.014;2022-11-20T11:09:58;135.90;;;56.97;;
38455;SDS011;24237;50.106;20.014;2022-11-20T11:12:25;146.43;;;56.75;;
38455;SDS011;24237;50.106;20.014;2022-11-20T11:14:54;136.55;;;54.85;;
38455;SDS011;24237;50.106;20.014;2022-11-20T11:22:30;139.23;;;56.78;;
38455;SDS011;24237;50.106;20.014;2022-11-20T11:24:59;127.35;;;53.90;;
38455;SDS011;24237;50.106;20.014;2022-11-20T11:27:26;140.07;;;57.22;;
38455;SDS011;24237;50.106;20.014;2022-11-20T11:30:00;134.77;;;54.67;;
38455;SDS011;24237;50.106;20.014;2022-11-20T11:32:38;132.38;;;54.55;;
38455;SDS011;24237;50.106;20.014;2022-11-20T11:35:20;142.57;;;56.53;;
38455;SDS011;24237;50.106;20.014;2022-11-20T11:38:02;140.13;;;55.25;;
38455;SDS011;24237;50.106;20.014;2022-11-20T11:40:32;141.93;;;55.95;;
38455;SDS011;24237;50.106;20.014;2022-11-20T11:43:06;144.18;;;56.85;;
38455;SDS011;24237;50.106;20.014;2022-11-20T11:46:06;137.18;;;58.65;;
38455;SDS011;24237;50.106;20.014;2022-11-20T11:51:39;141.75;;;58.58;;
38455;SDS011;24237;50.106;20.014;2022-11-20T11:54:16;139.07;;;56.95;;
38455;SDS011;24237;50.106;20.014;2022-11-20T11:56:49;140.50;;;57.70;;
38455;SDS011;24237;50.106;20.014;2022-11-20T11:59:20;147.10;;;57.63;;
38455;SDS011;24237;50.106;20.014;2022-11-20T12:02:29;138.73;;;54.40;;
38455;SDS011;24237;50.106;20.014;2022-11-20T12:05:49;134.07;;;55.97;;
38455;SDS011;24237;50.106;20.014;2022-11-20T12:08:41;144.07;;;56.25;;
38455;SDS011;24237;50.106;20.014;2022-11-20T12:16:38;141.13;;;57.80;;
38455;SDS011;24237;50.106;20.014;2022-11-20T12:19:08;135.52;;;57.58;;
38455;SDS011;24237;50.106;20.014;2022-11-20T12:27:14;125.88;;;55.22;;
38455;SDS011;24237;50.106;20.014;2022-11-20T12:52:27;126.10;;;52.40;;
38455;SDS011;24237;50.106;20.014;2022-11-20T12:55:08;133.50;;;52.58;;
38455;SDS011;24237;50.106;20.014;2022-11-20T12:57:54;128.55;;;53.75;;
38455;SDS011;24237;50.106;20.014;2022-11-20T13:00:22;133.30;;;53.42;;
38455;SDS011;24237;50.106;20.014;2022-11-20T13:03:02;124.05;;;53.20;;
38455;SDS011;24237;50.106;20.014;2022-11-20T13:08:20;141.23;;;58.17;;
38455;SDS011;24237;50.106;20.014;2022-11-20T13:10:50;140.13;;;56.78;;
38455;SDS011;24237;50.106;20.014;2022-11-20T13:18:38;139.25;;;54.95;;
38455;SDS011;24237;50.106;20.014;2022-11-20T13:21:14;139.10;;;56.22;;
38455;SDS011;24237;50.106;20.014;2022-11-20T13:23:46;132.35;;;54.47;;
38455;SDS011;24237;50.106;20.014;2022-11-20T13:26:22;139.43;;;57.25;;
38455;SDS011;24237;50.106;20.014;2022-11-20T13:31:50;138.65;;;55.08;;
38455;SDS011;24237;50.106;20.014;2022-11-20T13:34:25;138.85;;;56.55;;
38455;SDS011;24237;50.106;20.014;2022-11-20T13:36:53;141.57;;;56.22;;
38455;SDS011;24237;50.106;20.014;2022-11-20T13:39:25;144.18;;;54.75;;
38455;SDS011;24237;50.106;20.014;2022-11-20T13:42:02;129.60;;;54.22;;
38455;SDS011;24237;50.106;20.014;2022-11-20T13:44:42;132.80;;;55.33;;
38455;SDS011;24237;50.106;20.014;2022-11-20T13:47:20;133.55;;;56.22;;
38455;SDS011;24237;50.106;20.014;2022-11-20T13:49:53;133.82;;;56.08;;
38455;SDS011;24237;50.106;20.014;2022-11-20T14:01:10;127.63;;;55.15;;
38455;SDS011;24237;50.106;20.014;2022-11-20T14:03:41;121.13;;;52.47;;
38455;SDS011;24237;50.106;20.014;2022-11-20T14:08:48;122.88;;;52.85;;
38455;SDS011;24237;50.106;20.014;2022-11-20T14:13:57;140.93;;;57.08;;
38455;SDS011;24237;50.106;20.014;2022-11-20T14:16:31;135.75;;;55.55;;
38455;SDS011;24237;50.106;20.014;2022-11-20T14:19:17;140.75;;;55.03;;
38455;SDS011;24237;50.106;20.014;2022-11-20T14:21:45;136.30;;;53.00;;
38455;SDS011;24237;50.106;20.014;2022-11-20T14:24:12;128.18;;;54.00;;
38455;SDS011;24237;50.106;20.014;2022-11-20T14:26:45;132.07;;;53.97;;
38455;SDS011;24237;50.106;20.014;2022-11-20T14:29:56;133.00;;;54.35;;
38455;SDS011;24237;50.106;20.014;2022-11-20T14:32:01;123.80;;;54.03;;
38455;SDS011;24237;50.106;20.014;2022-11-20T14:34:29;133.57;;;53.40;;
38455;SDS011;24237;50.106;20.014;2022-11-20T14:37:04;132.02;;;54.22;;
38455;SDS011;24237;50.106;20.014;2022-11-20T14:39:36;152.60;;;58.70;;
38455;SDS011;24237;50.106;20.014;2022-11-20T14:42:14;143.98;;;58.90;;
38455;SDS011;24237;50.106;20.014;2022-11-20T14:44:45;139.73;;;56.80;;
38455;SDS011;24237;50.106;20.014;2022-11-20T14:49:40;147.50;;;56.33;;
38455;SDS011;24237;50.106;20.014;2022-11-20T14:52:14;153.60;;;58.28;;
38455;SDS011;24237;50.106;20.014;2022-11-20T14:54:46;145.75;;;61.13;;
38455;SDS011;24237;50.106;20.014;2022-11-20T14:57:29;155.02;;;63.55;;
38455;SDS011;24237;50.106;20.014;2022-11-20T15:00:03;151.77;;;60.47;;
38455;SDS011;24237;50.106;20.014;2022-11-20T15:02:46;150.23;;;61.13;;
38455;SDS011;24237;50.106;20.014;2022-11-20T15:05:17;160.95;;;64.40;;
38455;SDS011;24237;50.106;20.014;2022-11-20T15:07:46;177.88;;;67.10;;
38455;SDS011;24237;50.106;20.014;2022-11-20T15:12:53;166.18;;;65.15;;
38455;SDS011;24237;50.106;20.014;2022-11-20T15:15:21;162.38;;;67.18;;
38455;SDS011;24237;50.106;20.014;2022-11-20T15:18:04;163.23;;;66.03;;
38455;SDS011;24237;50.106;20.014;2022-11-20T15:20:31;177.45;;;68.70;;
38455;SDS011;24237;50.106;20.014;2022-11-20T15:23:18;158.02;;;62.35;;
38455;SDS011;24237;50.106;20.014;2022-11-20T15:25:44;151.07;;;58.08;;
38455;SDS011;24237;50.106;20.014;2022-11-20T15:28:30;163.57;;;62.75;;
38455;SDS011;24237;50.106;20.014;2022-11-20T15:31:02;150.38;;;60.42;;
38455;SDS011;24237;50.106;20.014;2022-11-20T15:33:34;163.05;;;62.40;;
38455;SDS011;24237;50.106;20.014;2022-11-20T15:36:02;157.35;;;61.92;;
38455;SDS011;24237;50.106;20.014;2022-11-20T15:38:28;156.00;;;64.90;;
38455;SDS011;24237;50.106;20.014;2022-11-20T15:40:53;166.82;;;63.17;;
38455;SDS011;24237;50.106;20.014;2022-11-20T15:43:19;151.65;;;60.45;;
38455;SDS011;24237;50.106;20.014;2022-11-20T15:45:51;158.70;;;61.60;;
38455;SDS011;24237;50.106;20.014;2022-11-20T15:48:30;149.98;;;60.78;;
38455;SDS011;24237;50.106;20.014;2022-11-20T15:51:02;166.10;;;63.25;;
38455;SDS011;24237;50.106;20.014;2022-11-20T15:53:31;154.32;;;62.20;;
38455;SDS011;24237;50.106;20.014;2022-11-20T15:55:57;151.18;;;60.28;;
38455;SDS011;24237;50.106;20.014;2022-11-20T15:58:23;153.98;;;61.67;;
38455;SDS011;24237;50.106;20.014;2022-11-20T16:00:49;147.73;;;62.22;;
38455;SDS011;24237;50.106;20.014;2022-11-20T16:03:15;152.55;;;61.60;;
38455;SDS011;24237;50.106;20.014;2022-11-20T16:05:42;149.60;;;59.45;;
38455;SDS011;24237;50.106;20.014;2022-11-20T16:08:08;147.98;;;60.00;;
38455;SDS011;24237;50.106;20.014;2022-11-20T16:10:34;144.90;;;60.13;;
38455;SDS011;24237;50.106;20.014;2022-11-20T16:13:00;153.02;;;61.58;;
38455;SDS011;24237;50.106;20.014;2022-11-20T16:15:46;144.00;;;61.95;;